Flight Track Log - Related Links

Times and Time Zones

All times are in EDT time to prevent confusion due to time zone crossing. See the UAL33 flight status page for this flight to view local times or setup timezone preferences in your user account.

Time Position Orientation Groundspeed Altitude Reporting Facility
EDT Latitude Longitude Course Direction KTS MPH feet Rate Location/Type
05:12AM 35.6501 140.4578 149° Southeast 230 265 4,800  Level FlightAware ADS-B
05:12AM 35.6200 140.4790 149° Southeast 252 290 5,800 2,100 Climbing FlightAware ADS-B
05:13AM 35.6113 140.4857 149° Southeast 248 285 6,200 2,609 Climbing FlightAware ADS-B
05:13AM 35.5697 140.5199 127° Southeast 272 313 7,800 2,262 Climbing FlightAware ADS-B
05:14AM 35.5601 140.5484 101° East 293 337 8,500 1,538 Climbing FlightAware ADS-B
05:14AM 35.5580 140.5700 98° East 300 345 8,800 750 Climbing FlightAware ADS-B
05:14AM 35.5520 140.6167 97° East 299 344 9,000 300 Climbing FlightAware ADS-B
05:15AM 35.5480 140.6498 97° East 297 342 9,000  Level FlightAware ADS-B
05:15AM 35.5440 140.6839 97° East 297 342 9,000  Level FlightAware ADS-B
05:15AM 35.5398 140.7181 97° East 298 343 9,000 1,077 Level FlightAware ADS-B
05:16AM 35.5359 140.7495 97° East 301 346 9,700 2,057 Climbing FlightAware ADS-B
05:16AM 35.5330 140.7680 99° East 306 352 10,200 1,538 Climbing FlightAware ADS-B
05:16AM 35.5268 140.8205 99° East 338 389 10,700 1,292 Climbing FlightAware ADS-B
05:17AM 35.5165 140.9032 98° East 377 434 11,600 1,630 Climbing FlightAware ADS-B
05:18AM 35.5061 140.9869 98° East 398 458 12,900 2,203 Climbing FlightAware ADS-B
05:18AM 35.4930 141.0821 101° East 414 476 14,500 2,500 Climbing FlightAware ADS-B
05:20AM 35.4430 141.2591 111° Southeast 421 484 17,900 2,529 Climbing FlightAware ADS-B
05:20AM 35.4157 141.3483 110° East 422 486 19,600 2,127 Climbing FlightAware ADS-B
05:21AM 35.3888 141.4362 110° East 434 499 20,700 1,291 Climbing FlightAware ADS-B
05:22AM 35.3589 141.5330 111° Southeast 465 535 21,300 1,275 Climbing FlightAware ADS-B
05:22AM 35.3344 141.6346 96° East 485 558 22,400 1,672 Climbing FlightAware ADS-B
05:23AM 35.3369 141.6956 81° East 496 571 23,000 1,714 Climbing FlightAware ADS-B
05:23AM 35.3506 141.7474 66° East 507 583 23,600 1,627 Climbing FlightAware ADS-B
05:24AM 35.3844 141.8537 77° East 512 589 24,600 1,424 Climbing FlightAware ADS-B
05:24AM 35.3900 141.9128 88° East 511 588 25,000 1,322 Climbing FlightAware ADS-B
05:25AM 35.3906 142.0228 90° East 516 594 25,900 1,170 Climbing FlightAware ADS-B
05:27AM 35.3992 142.3863 82° East 554 638 28,100 1,094 Climbing FlightAware ADS-B
05:27AM 35.4139 142.5057 82° East 560 644 28,800 84 Climbing FlightAware ADS-B
05:30AM 35.5914 142.8434 57° Northeast  Level Estimated
05:31AM 35.6667 142.9876 57° Northeast  Level Estimated
05:32AM 35.7418 143.1321 57° Northeast  Level Estimated
05:33AM 35.8168 143.2769 57° Northeast  Level Estimated
05:34AM 35.8915 143.4219 57° Northeast  Level Estimated
05:35AM 35.9661 143.5672 58° Northeast  Level Estimated
05:36AM 36.0405 143.7127 58° Northeast  Level Estimated
05:37AM 36.1147 143.8585 58° Northeast  Level Estimated
05:38AM 36.1888 144.0047 58° Northeast  Level Estimated
05:39AM 36.2627 144.1510 58° Northeast  Level Estimated
05:40AM 36.3364 144.2977 58° Northeast  Level Estimated
05:41AM 36.4099 144.4446 58° Northeast  Level Estimated
05:42AM 36.4832 144.5919 58° Northeast  Level Estimated
05:43AM 36.5564 144.7394 58° Northeast  Level Estimated
05:44AM 36.6294 144.8871 58° Northeast  Level Estimated
05:45AM 36.7022 145.0352 58° Northeast  Level Estimated
05:46AM 36.7748 145.1835 59° Northeast  Level Estimated
05:47AM 36.8472 145.3322 59° Northeast  Level Estimated
05:48AM 36.9193 145.4808 59° Northeast  Level Estimated
05:49AM 36.9912 145.6297 59° Northeast  Level Estimated
05:50AM 37.0630 145.7789 59° Northeast  Level Estimated
05:51AM 37.1345 145.9284 59° Northeast  Level Estimated
05:52AM 37.2059 146.0782 59° Northeast  Level Estimated
05:53AM 37.2771 146.2282 59° Northeast  Level Estimated
05:54AM 37.3480 146.3785 59° Northeast  Level Estimated
05:55AM 37.4188 146.5292 59° Northeast  Level Estimated
05:56AM 37.4894 146.6801 59° Northeast  Level Estimated
05:57AM 37.5599 146.8313 60° Northeast  Level Estimated
05:58AM 37.6301 146.9827 60° Northeast  Level Estimated
05:59AM 37.7001 147.1345 60° Northeast  Level Estimated
06:00AM 37.7699 147.2865 60° Northeast  Level Estimated
06:01AM 37.8396 147.4389 60° Northeast  Level Estimated
06:02AM 37.9090 147.5915 60° Northeast  Level Estimated
06:03AM 37.9782 147.7444 60° Northeast  Level Estimated
06:04AM 38.0473 147.8976 60° Northeast  Level Estimated
06:05AM 38.1161 148.0511 60° Northeast  Level Estimated
06:06AM 38.1848 148.2048 60° Northeast  Level Estimated
06:07AM 38.2532 148.3589 60° Northeast  Level Estimated
06:08AM 38.3215 148.5133 61° Northeast  Level Estimated
06:09AM 38.3895 148.6679 61° Northeast  Level Estimated
06:10AM 38.4575 148.8231 61° Northeast  Level Estimated
06:11AM 38.5252 148.9786 61° Northeast  Level Estimated
06:12AM 38.5927 149.1344 61° Northeast  Level Estimated
06:13AM 38.6601 149.2905 61° Northeast  Level Estimated
06:14AM 38.7272 149.4469 61° Northeast  Level Estimated
06:15AM 38.7941 149.6035 61° Northeast  Level Estimated
06:16AM 38.8608 149.7605 61° Northeast  Level Estimated
06:17AM 38.9273 149.9178 61° Northeast  Level Estimated
06:18AM 38.9936 150.0753 62° Northeast  Level Estimated
06:19AM 39.0597 150.2332 62° Northeast  Level Estimated
06:20AM 39.1255 150.3913 62° Northeast  Level Estimated
06:21AM 39.1912 150.5497 62° Northeast  Level Estimated
06:22AM 39.2566 150.7085 62° Northeast  Level Estimated
06:23AM 39.3218 150.8675 62° Northeast  Level Estimated
06:24AM 39.3868 151.0269 62° Northeast  Level Estimated
06:25AM 39.4516 151.1865 62° Northeast  Level Estimated
06:26AM 39.5162 151.3464 62° Northeast  Level Estimated
06:27AM 39.5805 151.5066 62° Northeast  Level Estimated
06:28AM 39.6446 151.6671 63° Northeast  Level Estimated
06:29AM 39.7086 151.8280 63° Northeast  Level Estimated
06:30AM 39.7722 151.9891 63° Northeast  Level Estimated
06:31AM 39.8357 152.1505 63° Northeast  Level Estimated
06:32AM 39.8989 152.3122 63° Northeast  Level Estimated
06:33AM 39.9619 152.4742 63° Northeast  Level Estimated
06:34AM 40.0247 152.6365 63° Northeast  Level Estimated
06:35AM 40.0873 152.7991 63° Northeast  Level Estimated
06:36AM 40.1496 152.9620 63° Northeast  Level Estimated
06:37AM 40.2117 153.1252 63° Northeast  Level Estimated
06:38AM 40.2736 153.2887 64° Northeast  Level Estimated
06:39AM 40.3352 153.4525 64° Northeast  Level Estimated
06:40AM 40.3966 153.6166 64° Northeast  Level Estimated
06:41AM 40.4578 153.7810 64° Northeast  Level Estimated
06:42AM 40.5187 153.9457 64° Northeast  Level Estimated
06:43AM 40.5794 154.1107 64° Northeast  Level Estimated
06:44AM 40.6399 154.2760 64° Northeast  Level Estimated
06:45AM 40.7001 154.4415 64° Northeast  Level Estimated
06:46AM 40.7601 154.6074 64° Northeast  Level Estimated
06:47AM 40.8199 154.7736 65° Northeast  Level Estimated
06:48AM 40.8794 154.9401 65° Northeast  Level Estimated
06:49AM 40.9387 155.1069 65° Northeast  Level Estimated
06:50AM 40.9977 155.2740 65° Northeast  Level Estimated
06:51AM 41.0565 155.4414 65° Northeast  Level Estimated
06:52AM 41.1151 155.6091 65° Northeast  Level Estimated
06:53AM 41.1734 155.7770 65° Northeast  Level Estimated
06:54AM 41.2315 155.9453 65° Northeast  Level Estimated
06:55AM 41.2893 156.1139 65° Northeast  Level Estimated
06:56AM 41.3469 156.2828 66° East  Level Estimated
06:57AM 41.4042 156.4520 66° East  Level Estimated
06:58AM 41.4613 156.6214 66° East  Level Estimated
06:59AM 41.5181 156.7912 66° East  Level Estimated
07:00AM 41.5747 156.9613 66° East  Level Estimated
07:01AM 41.6310 157.1316 66° East  Level Estimated
07:02AM 41.6871 157.3023 66° East  Level Estimated
07:03AM 41.7429 157.4733 66° East  Level Estimated
07:04AM 41.7985 157.6445 66° East  Level Estimated
07:05AM 41.8538 157.8161 67° East  Level Estimated
07:06AM 41.9089 157.9879 67° East  Level Estimated
07:07AM 41.9637 158.1601 67° East  Level Estimated
07:08AM 42.0182 158.3325 67° East  Level Estimated
07:09AM 42.0725 158.5053 67° East  Level Estimated
07:10AM 42.1265 158.6783 67° East  Level Estimated
07:11AM 42.1803 158.8516 67° East  Level Estimated
07:12AM 42.2338 159.0253 67° East  Level Estimated
07:13AM 42.2871 159.1992 67° East  Level Estimated
07:14AM 42.3400 159.3734 68° East  Level Estimated
07:15AM 42.3928 159.5479 68° East  Level Estimated
07:16AM 42.4452 159.7227 68° East  Level Estimated
07:17AM 42.4974 159.8978 68° East  Level Estimated
07:18AM 42.5493 160.0732 68° East  Level Estimated
07:19AM 42.6010 160.2488 68° East  Level Estimated
07:20AM 42.6524 160.4248 68° East  Level Estimated
07:21AM 42.7035 160.6011 68° East  Level Estimated
07:22AM 42.7543 160.7776 69° East  Level Estimated
07:23AM 42.8049 160.9544 69° East  Level Estimated
07:24AM 42.8552 161.1316 69° East  Level Estimated
07:25AM 42.9052 161.3090 69° East  Level Estimated
07:26AM 42.9550 161.4867 69° East  Level Estimated
07:27AM 43.0044 161.6647 69° East  Level Estimated
07:28AM 43.0536 161.8429 69° East  Level Estimated
07:29AM 43.1026 162.0215 69° East  Level Estimated
07:30AM 43.1512 162.2003 69° East  Level Estimated
07:31AM 43.1996 162.3794 70° East  Level Estimated
07:32AM 43.2477 162.5588 70° East  Level Estimated
07:33AM 43.2955 162.7385 70° East  Level Estimated
07:34AM 43.3430 162.9185 70° East  Level Estimated
07:35AM 43.3902 163.0988 70° East  Level Estimated
07:36AM 43.4372 163.2793 70° East  Level Estimated
07:37AM 43.4838 163.4601 70° East  Level Estimated
07:37AM 38.0833 167.5833 92° East 576 663 39,000  Level Oakland Oceanic (ODAPS)
07:49AM 38.0000 170.0000 87° East 575 662 39,000  Level Oakland Oceanic (ODAPS)
07:51AM 38.0167 170.4000 87° East 571 657 39,000  Level Oakland Oceanic (ODAPS)
08:18AM 38.1000 176.0833 91° East 573 659 39,000  Level Oakland Oceanic (ODAPS)
08:32AM 38.0500 178.8333 93° East 558 642 39,000  Level Oakland Oceanic (ODAPS)
08:38AM 38.0000 180.0000 80° East 550 633 39,000  Level Oakland Oceanic (ODAPS)
08:46AM 38.2167 -178.4500 81° East 543 625 39,000  Level Oakland Oceanic (ODAPS)
09:00AM 38.5333 -175.7667 82° East 542 624 39,000  Level Oakland Oceanic (ODAPS)
09:14AM 38.7833 -173.1167 84° East 533 613 39,000  Level Oakland Oceanic (ODAPS)
09:28AM 38.9667 -170.4833 85° East 542 624 39,000  Level Oakland Oceanic (ODAPS)
09:30AM 39.0000 -170.0000 87° East 533 613 39,000  Level Oakland Oceanic (ODAPS)
09:42AM 39.0667 -167.8333 88° East 530 610 39,000  Level Oakland Oceanic (ODAPS)
09:56AM 39.1000 -165.2333 90° East 522 601 39,000  Level Oakland Oceanic (ODAPS)
10:09AM 39.0833 -162.7000 91° East 518 596 39,000  Level Oakland Oceanic (ODAPS)
10:23AM 39.0000 -160.1500 90° East 528 608 39,000  Level Oakland Oceanic (ODAPS)
10:24AM 39.0000 -160.0000 101° East 534 615 39,000  Level Oakland Oceanic (ODAPS)
10:37AM 38.6000 -157.5667 103° East 542 624 39,000  Level Oakland Oceanic (ODAPS)
10:51AM 38.1167 -155.0000 104° East 545 627 39,000  Level Oakland Oceanic (ODAPS)
11:05AM 37.5667 -152.4000 106° East 574 661 39,000 37 Level Oakland Oceanic (ODAPS)
11:18AM 37.0000 -150.0000 87° East 522 601 40,000 72 Climbing Oakland Oceanic (ODAPS)
11:19AM 37.0000 -149.8667 87° East 519 597 40,000  Level Oakland Oceanic (ODAPS)
11:33AM 37.0833 -147.3167 89° East 515 593 40,000  Level Oakland Oceanic (ODAPS)
11:46AM 37.1000 -144.8167 90° East 509 586 40,000  Level Oakland Oceanic (ODAPS)
12:00PM 37.0833 -142.3500 92° East 512 589 40,000 37 Level Oakland Oceanic (ODAPS)
12:14PM 37.0000 -140.0000 80° East 508 585 41,000 72 Climbing Oakland Oceanic (ODAPS)
12:14PM 37.0167 -139.9167 80° East 505 581 41,000  Level Oakland Oceanic (ODAPS)
12:28PM 37.3333 -137.5167 81° East 507 583 41,000  Level Oakland Oceanic (ODAPS)
12:42PM 37.6000 -135.0833 83° East 501 577 41,000  Level Oakland Oceanic (ODAPS)
12:42PM 37.6167 -134.9833 83° East 500 575 41,000  Level Oakland Oceanic (ODAPS)
12:56PM 37.8167 -132.7167 84° East 495 570 41,000  Level Oakland Oceanic (ODAPS)
01:10PM 37.9833 -130.3167 86° East 499 574 41,000  Level Oakland Oceanic (ODAPS)
01:12PM 38.0000 -130.0000 101° East 479 551 41,000  Level Oakland Oceanic (ODAPS)
01:24PM 37.6833 -128.0000 103° East 489 563 41,000 -7 Level Oakland Oceanic (ODAPS)
01:27PM 37.5928 -127.4794 93° East 487 560 40,900  Descending Oakland Center
01:28PM 37.5593 -127.3313 103° East 479 551 41,000 97 Climbing FlightAware Transoceanic
01:28PM 37.5631 -127.3139 103° East 487 560 41,000  Level Oakland Center
01:29PM 37.5298 -127.1656 103° East 479 551 41,000 -98 Level FlightAware Transoceanic
01:29PM 37.5264 -127.1133 103° East 487 560 40,900  Descending Oakland Center
01:30PM 37.5000 -127.0000 93° East 489 563 41,000 98 Climbing FlightAware Transoceanic
01:30PM 37.5031 -126.9453 100° East 488 562 41,000  Level Oakland Center
01:31PM 37.4925 -126.8273 93° East 489 563 41,000  Level FlightAware Transoceanic
01:31PM 37.4975 -126.7719 92° East 493 567 41,000  Level Oakland Center
01:32PM 37.4847 -126.6546 93° East 489 563 41,000  Level FlightAware Transoceanic
01:32PM 37.4903 -126.6017 93° East 493 567 41,000 -72 Level Oakland Center
01:33PM 37.4803 -126.4269 94° East 496 571 40,900 -49 Descending Oakland Center
01:34PM 37.4733 -126.2547 93° East 496 571 40,900 49 Level Oakland Center
01:35PM 37.4650 -126.0808 93° East 496 571 41,000 49 Climbing Oakland Center
01:36PM 37.4561 -125.9081 94° East 497 572 41,000 -49 Level Oakland Center
01:37PM 37.4453 -125.6972 94° East 499 574 40,900  Descending Oakland Center
01:38PM 37.4347 -125.5214 94° East 504 580 41,000  Climbing Oakland Center
01:39PM 37.4264 -125.3461 93° East 504 580 40,900  Descending Oakland Center
01:40PM 37.4147 -125.1711 95° East 504 580 41,000  Climbing Oakland Center
01:41PM 37.4047 -124.9961 94° East 504 580 40,900 -49 Descending Oakland Center
01:42PM 37.3947 -124.8217 94° East 504 580 40,900 49 Level Oakland Center
01:43PM 37.3836 -124.6461 95° East 504 580 41,000 49 Climbing Oakland Center
01:44PM 37.3733 -124.4703 94° East 504 580 41,000  Level Oakland Center
01:53PM 37.0967 -122.9500 120° Southeast 511 588 41,000  Level FlightAware ADS-B
01:53PM 37.0574 -122.8660 120° Southeast 511 588 41,000  Level FlightAware ADS-B
01:54PM 37.0190 -122.7840 120° Southeast 511 588 41,000  Level FlightAware ADS-B
01:54PM 36.9824 -122.7060 120° Southeast 511 588 41,000  Level FlightAware ADS-B
01:55PM 36.9443 -122.6250 120° Southeast 512 589 41,000  Level FlightAware ADS-B
01:56PM 36.9076 -122.5470 120° Southeast 512 589 41,000  Level FlightAware ADS-B
01:57PM 36.7905 -122.3000 120° Southeast 513 590 41,000  Level FlightAware ADS-B
01:58PM 36.7542 -122.2240 121° Southeast 512 589 41,000  Level FlightAware ADS-B
01:58PM 36.7139 -122.1390 121° Southeast 512 589 41,000  Level FlightAware ADS-B
02:00PM 36.5755 -121.8510 121° Southeast 513 590 41,000  Level FlightAware ADS-B
02:01PM 36.5169 -121.7300 121° Southeast 514 592 41,000  Level FlightAware ADS-B
02:01PM 36.4795 -121.6530 121° Southeast 515 593 41,000  Level FlightAware ADS-B
02:04PM 36.3094 -121.3040 121° Southeast 519 597 41,000  Level FlightAware ADS-B
02:04PM 36.2717 -121.2270 121° Southeast 516 594 41,000  Level FlightAware ADS-B
02:05PM 36.2131 -121.1080 121° Southeast 511 588 41,000  Level FlightAware ADS-B
02:06PM 36.1633 -121.0070 121° Southeast 508 585 41,000 -71 Level FlightAware ADS-B
02:06PM 36.1231 -120.9222 121° Southeast 509 586 40,900 -59 Descending Los Angeles Center
02:07PM 36.0681 -120.7642 113° Southeast 507 583 40,900 14 Level Los Angeles Center
02:13PM 35.5788 -119.9196 145° Southeast 511 588 41,000 15 Climbing FlightAware ADS-B (EHVB)
02:14PM 35.5058 -119.8566 144° Southeast 509 586 41,000 -857 Level FlightAware ADS-B (EHVB)
02:15PM 35.4274 -119.7982 155° Southeast 502 578 39,900 -1,944 Descending FlightAware ADS-B (EHVB)
02:15PM 35.3743 -119.7783 166° South 475 547 38,700 -2,344 Descending FlightAware ADS-B
02:16PM 35.2913 -119.7537 166° South 456 525 37,400 -2,833 Descending FlightAware ADS-B (EHVB)
02:16PM 35.2090 -119.7283 165° South 457 526 35,300 -2,625 Descending FlightAware ADS-B (EHVB)
02:17PM 35.1304 -119.7035 165° South 438 504 33,900 -2,582 Descending FlightAware ADS-B (EHVB)
02:18PM 35.0575 -119.6674 146° Southeast 439 505 31,900 -3,114 Descending FlightAware ADS-B (EHVB)
02:18PM 34.9956 -119.6015 136° Southeast 442 509 29,800 -2,231 Descending FlightAware ADS-B (EHVB)
02:19PM 34.9414 -119.5399 136° Southeast 413 475 29,000 -878 Descending FlightAware ADS-B (EHVB)
02:20PM 34.8780 -119.4676 136° Southeast 445 512 28,600 -1,012 Descending FlightAware ADS-B (EHVB)
02:20PM 34.8168 -119.3981 137° Southeast 466 536 27,600 -1,050 Descending FlightAware ADS-B (EHVB)
02:21PM 34.7520 -119.3250 136° Southeast 461 531 27,200 -1,185 Descending FlightAware ADS-B (EHVB)
02:22PM 34.6898 -119.2547 136° Southeast 451 519 26,000 -2,025 Descending FlightAware ADS-B (EHVB)
02:22PM 34.6308 -119.1886 137° Southeast 429 494 24,500 -2,734 Descending FlightAware ADS-B (EHVB)
02:23PM 34.5747 -119.1253 137° Southeast 413 475 22,400 -3,075 Descending FlightAware ADS-B (EHVB)
02:24PM 34.5189 -119.0626 136° Southeast 403 464 20,400 -2,700 Descending FlightAware ADS-B (EHVB)
02:24PM 34.4659 -119.0032 137° Southeast 395 455 18,800 -2,475 Descending FlightAware ADS-B (EHVB)
02:25PM 34.4114 -118.9423 137° Southeast 384 442 17,100 -2,475 Descending FlightAware ADS-B (EHVB)
02:26PM 34.3600 -118.8885 146° Southeast 371 427 15,500 -2,400 Descending FlightAware ADS-B (EHVB)
02:26PM 34.3274 -118.8705 162° South 370 426 14,700 -1,837 Descending FlightAware ADS-B (EHVB)
02:27PM 34.2812 -118.8535 162° South 359 413 14,000 -1,692 Descending FlightAware ADS-B (OPMT / MUX)
02:27PM 34.2643 -118.8472 162° South 359 413 13,600 -1,929 Descending FlightAware ADS-B (EHVB)
02:27PM 34.2371 -118.8370 162° South 358 412 13,100 -1,800 Descending FlightAware ADS-B (OPMT / MUX)
02:27PM 34.2002 -118.8236 162° South 355 409 12,400 -1,429 Descending FlightAware ADS-B (EHVB)
02:28PM 34.1379 -118.8010 163° South 350 403 11,600 -1,050 Descending FlightAware ADS-B (EHVB)
02:29PM 34.0764 -118.7782 162° South 344 396 11,000 -900 Descending FlightAware ADS-B (EHVB)
02:29PM 34.0500 -118.7585 133° Southeast 338 389 10,700 -828 Descending FlightAware ADS-B (EHVB)
02:29PM 34.0423 -118.7463 121° Southeast 336 387 10,600 -947 Descending FlightAware ADS-B (OPMT / MUX)
02:29PM 34.0362 -118.7292 111° Southeast 333 383 10,400 -1,091 Descending FlightAware ADS-B (OPMT / MUX)
02:29PM 34.0355 -118.7257 103° East 330 380 10,400 -769 Level FlightAware ADS-B (EHVB)
02:30PM 34.0292 -118.6590 95° East 312 359 9,900 -885 Descending FlightAware ADS-B (EHVB)
02:30PM 34.0257 -118.6200 96° East 296 341 9,500 -1,024 Descending FlightAware ADS-B (EHVB)
02:31PM 34.0229 -118.5905 96° East 281 323 9,200 -1,500 Descending FlightAware ADS-B (EHVB)
02:31PM 34.0203 -118.5632 96° East 274 315 8,600 -1,200 Descending FlightAware ADS-B (EHVB)
02:33PM 34.0132 -118.4356 83° East 225 259 7,000 -971 Descending FlightAware ADS-B (OPMT / MUX)
02:33PM 34.0144 -118.4214 84° East 213 245 6,900 -200 Descending FlightAware ADS-B (OPMT / MUX)
02:33PM 34.0160 -118.4020 84° East 191 220 6,900 -545 Level FlightAware ADS-B (OPMT / MUX)
02:33PM 34.0173 -118.3854 84° East 193 222 6,600 -1,161 Descending FlightAware ADS-B (OPMT / MUX)
02:34PM 34.0187 -118.3693 84° East 193 222 6,300 -960 Descending FlightAware ADS-B (OPMT / MUX)
02:34PM 34.0196 -118.3583 84° East 194 223 6,200 -1,034 Descending FlightAware ADS-B (OPMT / MUX)
02:34PM 34.0213 -118.3379 84° East 194 223 5,800 -1,235 Descending FlightAware ADS-B (OPMT / MUX)
02:34PM 34.0223 -118.3219 86° East 195 224 5,500 -1,200 Descending FlightAware ADS-B (OPMT / MUX)
02:35PM 34.0232 -118.3049 86° East 196 226 5,200 -1,116 Descending FlightAware ADS-B (OPMT / MUX)
02:35PM 34.0249 -118.2750 86° East 231 266 4,700 -1,200 Descending FlightAware ADS-B
02:36PM 34.0273 -118.2416 86° East 196 226 4,000 -1,026 Descending FlightAware ADS-B (OPMT / MUX)
02:36PM 34.0217 -118.1932 84° East 201 231 3,400 -761 Descending FlightAware ADS-B (OPMT / MUX)
02:37PM 34.0021 -118.1866 178° South 182 209 3,100 -581 Descending FlightAware ADS-B (OPMT / MUX)
02:37PM 33.9959 -118.1871 187° South 181 208 3,100 -667 Level FlightAware ADS-B (OPMT / MUX)
02:37PM 33.9921 -118.1886 199° South 179 206 3,000 -824 Descending FlightAware ADS-B (OPMT / MUX)
02:38PM 33.9702 -118.2245 205° Southwest 179 206 2,400 -615 Descending FlightAware ADS-B (OPMT / MUX)
02:38PM 33.9667 -118.2500 205° Southwest 180 207 2,200 -587 Descending Southern California TRACON
02:39PM 33.9667 -118.3167 270° West 177 204 1,500 -750 Descending Southern California TRACON
02:40PM 33.9500 -118.3667 248° West 149 171 700 -564 Descending Southern California TRACON
02:42PM 33.9494 -118.4353 269° West 155 178 100 -404 Descending Los Angeles Center

Login

Don't have an account? Register now (free) for customized features, flight alerts, and more!